createdAt,value
2018-05-25T00:01:51.811Z,84.73
2018-05-25T00:04:19.667Z,84.80
2018-05-25T00:06:47.297Z,85.06
2018-05-25T00:09:14.901Z,85.37
2018-05-25T00:11:42.484Z,84.99
2018-05-25T00:14:10.200Z,85.04
2018-05-25T00:16:37.802Z,84.96
2018-05-25T00:19:05.401Z,84.82
2018-05-25T00:21:33.394Z,86.22
2018-05-25T00:24:01.166Z,86.87
2018-05-25T00:26:28.759Z,87.15
2018-05-25T00:28:56.362Z,86.62
2018-05-25T00:31:24.008Z,85.63
2018-05-25T00:33:51.589Z,85.08
2018-05-25T00:36:19.280Z,85.18
2018-05-25T00:38:46.879Z,85.21
2018-05-25T00:41:14.469Z,85.11
2018-05-25T00:43:42.136Z,85.31
2018-05-25T00:46:09.974Z,85.63
2018-05-25T00:48:37.793Z,85.66
2018-05-25T00:51:05.612Z,85.44
2018-05-25T00:53:33.217Z,85.12
2018-05-25T00:56:00.828Z,84.92
2018-05-25T00:58:28.567Z,85.07
2018-05-25T01:00:56.208Z,85.10
2018-05-25T01:03:23.985Z,85.13
2018-05-25T01:05:51.661Z,85.19
2018-05-25T01:08:19.244Z,84.99
2018-05-25T01:10:46.824Z,85.45
2018-05-25T01:13:14.424Z,85.78
2018-05-25T01:15:42.016Z,85.84
2018-05-25T01:18:09.817Z,85.55
2018-05-25T01:20:37.550Z,85.60
2018-05-25T01:23:05.451Z,85.46
2018-05-25T01:25:33.033Z,85.05
2018-05-25T01:28:00.619Z,84.67
2018-05-25T01:30:28.210Z,85.04
2018-05-25T01:32:55.926Z,85.78
2018-05-25T01:35:23.685Z,85.81
2018-05-25T01:37:51.419Z,85.98
2018-05-25T01:40:19.004Z,85.93
2018-05-25T01:42:46.620Z,85.97
2018-05-25T01:45:14.393Z,86.28
2018-05-25T01:47:42.233Z,86.28
2018-05-25T01:50:09.815Z,86.23
2018-05-25T01:52:37.448Z,86.03
2018-05-25T01:55:05.066Z,86.02
2018-05-25T01:57:32.657Z,86.00
2018-05-25T02:00:00.264Z,86.38
2018-05-25T02:02:28.041Z,86.47
2018-05-25T02:04:55.648Z,86.64
2018-05-25T02:07:23.476Z,86.79
2018-05-25T02:09:51.235Z,86.47
2018-05-25T02:12:19.012Z,86.49
2018-05-25T02:14:46.831Z,86.91
2018-05-25T02:17:14.424Z,86.85
2018-05-25T02:19:42.017Z,86.60
2018-05-25T02:22:09.612Z,86.74
2018-05-25T02:24:37.198Z,86.80
2018-05-25T02:27:04.858Z,86.82
2018-05-25T02:29:32.476Z,86.36
2018-05-25T02:32:00.060Z,86.84
2018-05-25T02:34:27.653Z,86.86
2018-05-25T02:36:55.236Z,87.06
2018-05-25T02:39:22.840Z,87.36
2018-05-25T02:41:50.628Z,87.15
2018-05-25T02:44:18.548Z,86.78
2018-05-25T02:46:46.368Z,86.78
2018-05-25T02:49:13.952Z,87.06
2018-05-25T02:51:41.673Z,86.34
2018-05-25T02:54:09.256Z,85.78
2018-05-25T02:56:36.837Z,85.81
2018-05-25T02:59:04.424Z,86.12
2018-05-25T03:01:32.086Z,86.07
2018-05-25T03:03:59.676Z,86.28
2018-05-25T03:06:27.277Z,86.48
2018-05-25T03:08:55.030Z,86.18
2018-05-25T03:11:22.608Z,85.68
2018-05-25T03:13:50.230Z,85.39
2018-05-25T03:16:17.860Z,85.28
2018-05-25T03:18:45.581Z,85.51
2018-05-25T03:21:13.419Z,85.93
2018-05-25T03:23:41.237Z,86.16
2018-05-25T03:26:08.940Z,85.85
2018-05-25T03:28:36.488Z,85.76
2018-05-25T03:31:04.120Z,86.28
2018-05-25T03:33:31.912Z,86.92
2018-05-25T03:35:59.697Z,87.26
2018-05-25T03:38:27.447Z,87.00
2018-05-25T03:40:55.024Z,86.64
2018-05-25T03:43:22.630Z,85.52
2018-05-25T03:45:50.337Z,84.33
2018-05-25T03:48:17.957Z,84.27
2018-05-25T03:50:45.536Z,84.28
2018-05-25T03:53:13.176Z,83.84
2018-05-25T03:55:40.769Z,83.73
2018-05-25T03:58:08.595Z,83.94
2018-05-25T04:00:48.152Z,83.74
2018-05-25T04:03:15.767Z,83.35
2018-05-25T04:05:43.356Z,83.00
2018-05-25T04:08:11.434Z,82.63
2018-05-25T04:10:40.530Z,82.53
2018-05-25T04:13:09.565Z,82.33
2018-05-25T04:15:37.375Z,82.31
2018-05-25T04:18:04.984Z,81.97
2018-05-25T04:20:32.723Z,82.00
2018-05-25T04:23:00.320Z,81.75
2018-05-25T04:25:28.103Z,81.50
2018-05-25T04:27:55.845Z,81.33
2018-05-25T04:30:23.435Z,80.57
2018-05-25T04:32:51.292Z,79.98
2018-05-25T04:35:18.884Z,79.86
2018-05-25T04:37:47.540Z,80.06
2018-05-25T04:40:15.198Z,80.26
2018-05-25T04:42:42.780Z,80.20
2018-05-25T04:45:10.562Z,80.34
2018-05-25T04:47:38.153Z,80.02
2018-05-25T04:50:05.821Z,80.04
2018-05-25T04:52:33.445Z,79.94
2018-05-25T04:55:01.148Z,79.79
2018-05-25T04:57:28.746Z,79.01
2018-05-25T04:59:56.563Z,78.56
2018-05-25T05:02:24.425Z,78.60
2018-05-25T05:04:52.044Z,78.87
2018-05-25T05:07:19.625Z,78.43
2018-05-25T05:09:47.366Z,77.31
2018-05-25T05:12:14.956Z,77.13
2018-05-25T05:14:42.648Z,75.72
2018-05-25T05:17:10.245Z,75.75
2018-05-25T05:19:38.022Z,75.54
2018-05-25T05:22:05.774Z,74.70
2018-05-25T05:24:33.385Z,73.40
2018-05-25T05:27:01.033Z,73.02
2018-05-25T05:29:28.711Z,72.56
2018-05-25T05:31:56.309Z,71.93
2018-05-25T05:34:23.974Z,70.15
2018-05-25T05:36:51.560Z,69.99
2018-05-25T05:39:19.144Z,69.44
2018-05-25T05:41:46.855Z,68.42
2018-05-25T05:44:14.434Z,68.55
2018-05-25T05:46:42.246Z,67.87
2018-05-25T05:49:09.832Z,67.91
2018-05-25T05:51:37.990Z,66.57
2018-05-25T05:54:05.612Z,66.20
2018-05-25T05:56:33.199Z,66.58
2018-05-25T05:59:00.841Z,65.49
2018-05-25T06:01:28.460Z,65.19
2018-05-25T06:03:56.074Z,63.78
2018-05-25T06:06:23.893Z,62.49
2018-05-25T06:08:51.711Z,62.64
2018-05-25T06:11:19.300Z,61.46
2018-05-25T06:13:46.876Z,61.87
2018-05-25T06:16:14.532Z,62.04
2018-05-25T06:18:42.392Z,61.83
2018-05-25T06:21:09.977Z,61.17
2018-05-25T06:23:37.742Z,60.45
2018-05-25T06:26:05.349Z,59.93
2018-05-25T06:28:33.019Z,60.31
2018-05-25T06:31:18.035Z,59.66
2018-05-25T06:33:45.604Z,59.87
2018-05-25T06:36:13.245Z,59.31
2018-05-25T06:38:40.887Z,58.60
2018-05-25T06:41:08.475Z,57.98
2018-05-25T06:43:39.061Z,57.85
2018-05-25T06:46:06.739Z,56.90
2018-05-25T06:48:34.490Z,55.96
2018-05-25T06:51:02.074Z,55.78
2018-05-25T06:53:29.660Z,54.53
2018-05-25T06:55:58.149Z,54.82
2018-05-25T06:58:25.729Z,54.26
2018-05-25T07:00:53.763Z,52.38
2018-05-25T07:03:21.382Z,53.16
2018-05-25T07:05:49.025Z,50.80
2018-05-25T07:08:16.605Z,50.75
2018-05-25T07:10:44.183Z,51.28
2018-05-25T07:13:11.808Z,50.84
2018-05-25T07:15:39.566Z,53.06
2018-05-25T07:18:07.192Z,54.38
2018-05-25T07:20:34.786Z,51.45
2018-05-25T07:23:02.360Z,50.44
2018-05-25T07:25:30.065Z,48.75
2018-05-25T07:27:57.637Z,50.07
2018-05-25T07:30:25.208Z,48.63
2018-05-25T07:32:52.791Z,47.63
2018-05-25T07:35:20.386Z,48.31
2018-05-25T07:37:48.051Z,48.73
2018-05-25T07:40:15.660Z,49.19
2018-05-25T07:42:43.289Z,47.53
2018-05-25T07:45:10.872Z,47.47
2018-05-25T07:47:38.444Z,47.14
2018-05-25T07:50:06.039Z,48.41
2018-05-25T07:52:33.613Z,47.97
2018-05-25T07:55:01.196Z,47.47
2018-05-25T07:57:28.773Z,48.00
2018-05-25T07:59:56.410Z,49.15
2018-05-25T08:02:23.997Z,49.74
2018-05-25T08:04:51.612Z,49.08
2018-05-25T08:07:19.192Z,48.82
2018-05-25T08:09:46.773Z,47.70
2018-05-25T08:12:14.380Z,46.92
2018-05-25T08:14:41.960Z,47.95
2018-05-25T08:17:09.707Z,47.20
2018-05-25T08:19:37.288Z,45.77
2018-05-25T08:22:04.871Z,44.15
2018-05-25T08:24:32.460Z,45.70
2018-05-25T08:27:00.048Z,44.48
2018-05-25T08:29:27.872Z,42.54
2018-05-25T08:31:55.452Z,42.18
2018-05-25T08:34:23.091Z,43.17
2018-05-25T08:36:50.690Z,42.56
2018-05-25T08:39:18.271Z,44.47
2018-05-25T08:41:45.852Z,43.82
2018-05-25T08:44:15.015Z,44.90
2018-05-25T08:46:42.613Z,45.57
2018-05-25T08:49:10.224Z,46.52
2018-05-25T08:51:37.833Z,46.97
2018-05-25T08:54:05.424Z,45.34
2018-05-25T08:56:33.005Z,44.51
2018-05-25T08:59:00.597Z,45.28
2018-05-25T09:01:28.677Z,44.87
2018-05-25T09:03:56.376Z,45.51
2018-05-25T09:06:23.953Z,45.19
2018-05-25T09:08:51.580Z,44.15
2018-05-25T09:11:19.616Z,44.38
2018-05-25T09:13:47.208Z,43.96
2018-05-25T09:16:15.280Z,45.55
2018-05-25T09:18:42.888Z,45.45
2018-05-25T09:21:10.473Z,43.37
2018-05-25T09:23:38.069Z,42.18
2018-05-25T09:26:05.940Z,41.22
2018-05-25T09:28:33.520Z,40.10
2018-05-25T09:31:01.096Z,39.21
2018-05-25T09:33:28.753Z,38.53
2018-05-25T09:35:56.324Z,37.88
2018-05-25T09:38:23.941Z,39.25
2018-05-25T09:40:51.527Z,41.00
2018-05-25T09:43:19.346Z,40.32
2018-05-25T09:45:46.929Z,39.15
2018-05-25T09:48:14.498Z,41.47
2018-05-25T09:50:42.091Z,41.14
2018-05-25T09:53:10.246Z,39.67
2018-05-25T09:55:37.877Z,39.54
2018-05-25T09:58:05.477Z,39.25
2018-05-25T10:00:33.081Z,39.00
2018-05-25T10:03:00.669Z,40.11
2018-05-25T10:05:28.393Z,41.04
2018-05-25T10:07:55.980Z,42.20
2018-05-25T10:10:23.568Z,41.30
2018-05-25T10:12:51.161Z,40.05
2018-05-25T10:15:18.741Z,38.60
2018-05-25T10:17:46.319Z,39.91
2018-05-25T10:20:13.977Z,40.51
2018-05-25T10:22:41.648Z,40.66
2018-05-25T10:25:10.351Z,40.39
2018-05-25T10:27:37.928Z,39.69
2018-05-25T10:30:07.295Z,39.58
2018-05-25T10:32:34.900Z,38.62
2018-05-25T10:35:02.624Z,39.60
2018-05-25T10:37:30.224Z,38.86
2018-05-25T10:39:57.850Z,38.31
2018-05-25T10:42:25.473Z,39.43
2018-05-25T10:44:53.071Z,39.46
2018-05-25T10:47:20.681Z,37.79
2018-05-25T10:49:48.261Z,36.99
2018-05-25T10:52:15.927Z,38.48
2018-05-25T10:54:43.470Z,40.18
2018-05-25T10:57:11.120Z,39.19
2018-05-25T10:59:38.699Z,39.79
2018-05-25T11:02:06.456Z,40.60
2018-05-25T11:04:34.040Z,40.40
2018-05-25T11:07:01.636Z,39.66
2018-05-25T11:09:29.237Z,41.15
2018-05-25T11:11:56.832Z,39.92
2018-05-25T11:14:24.477Z,38.84
2018-05-25T11:16:52.078Z,38.92
2018-05-25T11:19:19.672Z,38.68
2018-05-25T11:21:47.256Z,38.44
2018-05-25T11:24:14.843Z,39.75
2018-05-25T11:26:42.465Z,38.72
2018-05-25T11:29:10.045Z,38.94
2018-05-25T11:31:37.677Z,38.46
2018-05-25T11:34:05.600Z,39.53
2018-05-25T11:36:33.192Z,38.47
2018-05-25T11:39:00.809Z,38.03
2018-05-25T11:41:28.393Z,38.94
2018-05-25T11:43:56.013Z,38.77
2018-05-25T11:46:23.590Z,41.21
2018-05-25T11:48:51.280Z,38.38
2018-05-25T11:51:19.072Z,37.35
2018-05-25T11:53:46.648Z,37.75
2018-05-25T11:56:14.844Z,38.60
2018-05-25T11:58:42.425Z,37.73
2018-05-25T12:01:10.033Z,38.43
2018-05-25T12:03:37.612Z,38.48
2018-05-25T12:06:05.376Z,37.49
2018-05-25T12:08:32.956Z,39.35
2018-05-25T12:11:00.601Z,38.00
2018-05-25T12:13:28.188Z,37.73
2018-05-25T12:15:55.769Z,37.93
2018-05-25T12:18:23.400Z,37.30
2018-05-25T12:20:51.025Z,36.86
2018-05-25T12:23:18.669Z,36.54
2018-05-25T12:25:46.261Z,36.33
2018-05-25T12:28:14.024Z,36.36
2018-05-25T12:30:42.105Z,36.58
2018-05-25T12:33:09.700Z,35.23
2018-05-25T12:35:37.280Z,34.77
2018-05-25T12:38:05.041Z,35.38
2018-05-25T12:40:32.709Z,36.58
2018-05-25T12:43:00.278Z,36.67
2018-05-25T12:45:27.920Z,37.09
2018-05-25T12:47:55.508Z,35.80
2018-05-25T12:50:23.082Z,37.12
2018-05-25T12:52:50.674Z,35.53
2018-05-25T12:55:18.266Z,36.56
2018-05-25T12:57:45.865Z,34.70
2018-05-25T13:00:13.448Z,33.31
2018-05-25T13:02:41.050Z,32.17
2018-05-25T13:05:08.844Z,32.44
2018-05-25T13:07:36.432Z,32.72
2018-05-25T13:10:04.240Z,31.75
2018-05-25T13:12:31.856Z,31.90
2018-05-25T13:14:59.432Z,33.58
2018-05-25T13:17:27.063Z,34.28
2018-05-25T13:19:54.656Z,35.21
2018-05-25T13:22:22.249Z,42.33
2018-05-25T13:24:49.888Z,50.03
2018-05-25T13:27:17.472Z,53.77
2018-05-25T13:29:45.273Z,53.81
2018-05-25T13:32:12.851Z,57.70
2018-05-25T13:34:40.555Z,60.41
2018-05-25T13:37:08.181Z,62.79
2018-05-25T13:39:35.817Z,63.94
2018-05-25T13:42:03.493Z,63.38
2018-05-25T13:44:31.080Z,64.49
2018-05-25T13:46:58.681Z,65.43
2018-05-25T13:49:26.362Z,67.36
2018-05-25T13:51:53.968Z,68.69
2018-05-25T13:54:21.563Z,69.97
2018-05-25T13:56:49.223Z,70.22
2018-05-25T13:59:16.837Z,70.17
2018-05-25T14:01:44.437Z,74.43
2018-05-25T14:04:12.121Z,79.47
2018-05-25T14:06:39.803Z,84.54
2018-05-25T14:09:07.516Z,86.14
2018-05-25T14:11:35.108Z,82.07
2018-05-25T14:14:02.851Z,82.68
2018-05-25T14:16:30.444Z,86.91
2018-05-25T14:18:58.085Z,87.42
2018-05-25T14:21:25.693Z,88.31
2018-05-25T14:23:53.277Z,86.42
2018-05-25T14:26:20.881Z,87.77
2018-05-25T14:28:48.460Z,87.45
2018-05-25T14:31:16.201Z,89.26
2018-05-25T14:33:43.886Z,88.57
2018-05-25T14:36:11.496Z,89.90
2018-05-25T14:38:39.094Z,91.56
2018-05-25T14:41:07.680Z,91.84
2018-05-25T14:43:35.337Z,94.03
2018-05-25T14:46:02.971Z,93.11
2018-05-25T14:48:30.572Z,92.48
2018-05-25T14:50:58.185Z,91.58
2018-05-25T14:53:25.771Z,91.90
2018-05-25T14:55:53.414Z,92.43
2018-05-25T14:58:21.012Z,92.40
2018-05-25T15:00:48.637Z,92.23
2018-05-25T15:03:16.232Z,91.81
2018-05-25T15:05:43.881Z,91.75
2018-05-25T15:08:11.581Z,90.90
2018-05-25T15:10:39.173Z,92.06
2018-05-25T15:13:06.865Z,92.71
2018-05-25T15:15:34.477Z,92.06
2018-05-25T15:18:02.094Z,91.32
2018-05-25T15:20:29.693Z,92.03
2018-05-25T15:22:57.279Z,91.29
2018-05-25T15:25:25.001Z,90.60
2018-05-25T15:27:52.609Z,90.94
2018-05-25T15:30:20.272Z,92.87
2018-05-25T15:32:47.980Z,93.70
2018-05-25T15:35:15.620Z,92.45
2018-05-25T15:37:43.333Z,92.56
2018-05-25T15:40:11.867Z,92.35
2018-05-25T15:42:39.452Z,91.61
2018-05-25T15:50:12.768Z,90.29
2018-05-25T15:52:40.438Z,91.16
2018-05-25T15:55:08.414Z,92.18
2018-05-25T15:57:35.968Z,90.83
2018-05-25T16:00:03.802Z,90.12
2018-05-25T16:02:31.394Z,89.85
2018-05-25T16:04:59.000Z,91.18
2018-05-25T16:07:26.678Z,90.48
2018-05-25T16:09:54.249Z,91.55
2018-05-25T16:12:22.145Z,90.37
2018-05-25T16:14:49.786Z,89.48
2018-05-25T16:17:17.400Z,89.82
2018-05-25T16:19:44.957Z,90.98
2018-05-25T16:22:12.531Z,91.64
2018-05-25T16:24:40.158Z,91.71
2018-05-25T16:27:07.721Z,92.26
2018-05-25T16:29:35.357Z,92.24
2018-05-25T16:32:03.230Z,92.88
2018-05-25T16:34:30.845Z,92.41
2018-05-25T16:36:58.481Z,91.17
2018-05-25T16:39:26.044Z,90.07
2018-05-25T16:41:53.777Z,90.05
2018-05-25T16:44:21.493Z,91.60
2018-05-25T16:46:49.217Z,91.26
2018-05-25T16:49:16.915Z,92.52
2018-05-25T16:51:44.542Z,92.64
2018-05-25T16:54:12.100Z,91.15
2018-05-25T16:56:39.841Z,88.71
2018-05-25T16:59:07.521Z,88.22
2018-05-25T17:01:35.131Z,88.16
2018-05-25T17:04:02.942Z,88.19
2018-05-25T17:06:30.646Z,88.98
2018-05-25T17:08:58.204Z,88.75
2018-05-25T17:11:25.785Z,88.42
2018-05-25T17:13:53.338Z,89.47
2018-05-25T17:16:20.907Z,90.09
2018-05-25T17:18:48.522Z,89.72
2018-05-25T17:21:16.375Z,89.25
2018-05-25T17:23:43.991Z,90.06
2018-05-25T17:26:11.567Z,90.23
2018-05-25T17:28:39.135Z,89.98
2018-05-25T17:31:06.802Z,89.32
2018-05-25T17:33:34.417Z,89.65
2018-05-25T17:36:02.077Z,89.82
2018-05-25T17:38:29.637Z,90.00
2018-05-25T17:40:57.310Z,89.77
2018-05-25T17:43:24.957Z,89.57
2018-05-25T17:45:52.584Z,90.87
2018-05-25T17:48:20.372Z,91.48
2018-05-25T17:50:47.949Z,91.17
2018-05-25T17:53:15.564Z,92.06
2018-05-25T17:55:43.202Z,92.02
2018-05-25T17:58:10.846Z,91.46
2018-05-25T18:00:38.998Z,91.33
2018-05-25T18:03:06.712Z,91.00
2018-05-25T18:05:34.303Z,92.13
2018-05-25T18:08:01.868Z,91.40
2018-05-25T18:10:29.637Z,93.18
2018-05-25T18:12:57.196Z,94.88
2018-05-25T18:15:24.752Z,95.02
2018-05-25T18:17:52.312Z,95.16
2018-05-25T18:20:19.883Z,95.05
2018-05-25T18:22:47.448Z,95.14
2018-05-25T18:25:15.004Z,95.17
2018-05-25T18:27:42.636Z,95.21
2018-05-25T18:30:10.188Z,95.62
2018-05-25T18:32:37.801Z,95.79
2018-05-25T18:35:05.428Z,95.50
2018-05-25T18:37:33.033Z,95.83
2018-05-25T18:40:00.600Z,95.99
2018-05-25T18:42:28.973Z,96.15
2018-05-25T18:44:56.591Z,96.97
2018-05-25T18:47:24.301Z,96.89
2018-05-25T18:49:52.035Z,96.60
2018-05-25T18:52:19.799Z,96.05
2018-05-25T18:54:47.563Z,96.37
2018-05-25T18:57:15.136Z,95.34
2018-05-25T18:59:42.689Z,94.24
2018-05-25T19:02:10.517Z,94.48
2018-05-25T19:04:38.082Z,94.37
2018-05-25T19:07:05.856Z,95.39
2018-05-25T19:09:33.577Z,95.91
2018-05-25T19:12:01.130Z,95.21
2018-05-25T19:14:28.745Z,94.68
2018-05-25T19:16:56.296Z,95.32
2018-05-25T19:19:23.996Z,95.28
2018-05-25T19:21:51.668Z,95.41
2018-05-25T19:24:19.212Z,95.35
2018-05-25T19:26:46.830Z,94.67
2018-05-25T19:29:14.388Z,94.83
2018-05-25T19:31:42.032Z,94.60
2018-05-25T19:34:09.628Z,94.37
2018-05-25T19:36:37.662Z,94.59
2018-05-25T19:39:06.173Z,95.22
2018-05-25T19:41:33.809Z,95.47
2018-05-25T19:44:01.422Z,95.54
2018-05-25T19:46:28.944Z,94.71
2018-05-25T19:48:56.672Z,94.91
2018-05-25T19:51:24.485Z,95.79
2018-05-25T19:53:52.324Z,95.27
2018-05-25T19:56:20.308Z,95.04
2018-05-25T19:58:47.920Z,95.17
2018-05-25T20:01:15.488Z,94.52
2018-05-25T20:03:43.161Z,94.82
2018-05-25T20:06:10.764Z,95.31
2018-05-25T20:08:38.548Z,95.49
2018-05-25T20:11:06.366Z,95.57
2018-05-25T20:13:33.933Z,95.63
2018-05-25T20:16:01.558Z,95.65
2018-05-25T20:18:29.421Z,95.76
2018-05-25T20:20:57.141Z,96.09
2018-05-25T20:23:24.790Z,96.77
2018-05-25T20:25:52.577Z,97.30
2018-05-25T20:28:20.244Z,96.96
2018-05-25T20:30:47.813Z,96.71
2018-05-25T20:33:15.421Z,96.77
2018-05-25T20:35:43.122Z,96.65
2018-05-25T20:38:10.693Z,96.92
2018-05-25T20:40:38.264Z,96.50
2018-05-25T20:43:05.931Z,96.83
2018-05-25T20:45:33.501Z,96.60
2018-05-25T20:48:01.048Z,95.68
2018-05-25T20:50:28.621Z,95.83
2018-05-25T20:52:56.170Z,95.82
2018-05-25T20:55:23.840Z,95.98
2018-05-25T20:57:51.511Z,95.82
2018-05-25T21:00:19.061Z,95.67
2018-05-25T21:02:46.621Z,95.64
2018-05-25T21:05:14.221Z,96.40
2018-05-25T21:07:41.897Z,96.36
2018-05-25T21:10:09.456Z,96.46
2018-05-25T21:12:37.143Z,96.69
2018-05-25T21:15:04.724Z,96.99
2018-05-25T21:17:32.329Z,97.43
2018-05-25T21:20:00.006Z,97.02
2018-05-25T21:22:27.565Z,96.70
2018-05-25T21:24:55.229Z,96.71
2018-05-25T21:27:22.848Z,96.71
2018-05-25T21:29:50.457Z,96.95
2018-05-25T21:32:18.077Z,97.21
2018-05-25T21:34:45.640Z,97.71
2018-05-25T21:37:13.357Z,98.02
2018-05-25T21:39:40.884Z,97.99
2018-05-25T21:42:08.444Z,98.10
2018-05-25T21:44:36.145Z,97.96
2018-05-25T21:47:03.761Z,97.91
2018-05-25T21:49:31.586Z,98.11
2018-05-25T21:51:59.136Z,97.92
2018-05-25T21:54:26.760Z,97.63
2018-05-25T21:56:54.319Z,97.81
2018-05-25T21:59:21.957Z,97.62
2018-05-25T22:01:49.532Z,97.63
2018-05-25T22:04:17.090Z,98.14
2018-05-25T22:06:44.753Z,97.84
2018-05-25T22:09:12.420Z,97.36
2018-05-25T22:11:40.049Z,97.61
2018-05-25T22:14:07.911Z,97.52
2018-05-25T22:16:35.689Z,97.39
2018-05-25T22:19:03.272Z,97.33
2018-05-25T22:21:31.123Z,97.37
2018-05-25T22:23:58.680Z,97.86
2018-05-25T22:26:26.467Z,97.88
2018-05-25T22:28:54.085Z,97.75
2018-05-25T22:31:21.750Z,97.81
2018-05-25T22:33:49.332Z,97.23
2018-05-25T22:36:16.881Z,97.01
2018-05-25T22:38:44.497Z,97.06
2018-05-25T22:41:12.169Z,97.11
2018-05-25T22:43:51.476Z,96.97
2018-05-25T22:46:30.976Z,96.92
2018-05-25T22:49:10.548Z,97.06
2018-05-25T22:51:49.897Z,96.95
2018-05-25T22:54:33.989Z,97.11
2018-05-25T22:57:01.560Z,97.46
2018-05-25T22:59:29.298Z,97.54
2018-05-25T23:01:56.868Z,97.06
2018-05-25T23:04:24.552Z,96.88
2018-05-25T23:06:52.268Z,96.94
2018-05-25T23:09:19.812Z,97.13
2018-05-25T23:11:47.489Z,97.14
2018-05-25T23:14:15.032Z,97.33
2018-05-25T23:16:42.594Z,97.41
2018-05-25T23:19:10.261Z,97.21
2018-05-25T23:21:37.812Z,97.12
2018-05-25T23:24:05.497Z,96.90
2018-05-25T23:26:33.061Z,96.60
2018-05-25T23:29:00.682Z,96.57
2018-05-25T23:31:28.241Z,96.56
2018-05-25T23:33:55.865Z,96.62
2018-05-25T23:36:23.685Z,96.36
2018-05-25T23:38:51.245Z,96.51
2018-05-25T23:41:18.805Z,96.62
2018-05-25T23:43:46.405Z,96.48
2018-05-25T23:46:14.069Z,96.54
2018-05-25T23:48:41.685Z,96.65
2018-05-25T23:51:09.395Z,96.75
2018-05-25T23:53:37.212Z,96.73
2018-05-25T23:56:04.779Z,96.50
2018-05-25T23:58:32.652Z,96.61
